sensor_id;sensor_type;location;lat;lon;timestamp;pressure;altitude;pressure_sealevel;temperature;humidity
3160;BME280;1591;51.486;7.146;2022-09-28T00:01:21;71547.53;;;10.43;100.00
3160;BME280;1591;51.486;7.146;2022-09-28T00:03:55;71533.63;;;10.47;100.00
3160;BME280;1591;51.486;7.146;2022-09-28T00:06:28;71494.56;;;10.51;100.00
3160;BME280;1591;51.486;7.146;2022-09-28T00:08:57;71554.59;;;10.51;100.00
3160;BME280;1591;51.486;7.146;2022-09-28T00:11:27;71548.88;;;10.56;100.00
3160;BME280;1591;51.486;7.146;2022-09-28T00:13:58;71560.69;;;10.61;100.00
3160;BME280;1591;51.486;7.146;2022-09-28T00:16:30;71556.97;;;10.63;100.00
3160;BME280;1591;51.486;7.146;2022-09-28T00:18:59;71564.13;;;10.64;100.00
3160;BME280;1591;51.486;7.146;2022-09-28T00:21:30;71551.59;;;10.56;100.00
3160;BME280;1591;51.486;7.146;2022-09-28T00:24:01;71534.44;;;10.43;100.00
3160;BME280;1591;51.486;7.146;2022-09-28T00:26:48;71488.47;;;10.41;100.00
3160;BME280;1591;51.486;7.146;2022-09-28T00:29:22;71547.94;;;10.41;100.00
3160;BME280;1591;51.486;7.146;2022-09-28T00:31:53;71531.56;;;10.41;100.00
3160;BME280;1591;51.486;7.146;2022-09-28T00:34:24;71520.59;;;10.31;100.00
3160;BME280;1591;51.486;7.146;2022-09-28T00:37:00;71517.66;;;10.19;100.00
3160;BME280;1591;51.486;7.146;2022-09-28T00:39:29;71505.13;;;10.10;100.00
3160;BME280;1591;51.486;7.146;2022-09-28T00:42:01;71496.34;;;10.10;100.00
3160;BME280;1591;51.486;7.146;2022-09-28T00:44:49;71493.31;;;10.05;100.00
3160;BME280;1591;51.486;7.146;2022-09-28T00:47:39;71426.69;;;10.04;100.00
3160;BME280;1591;51.486;7.146;2022-09-28T00:50:23;71497.44;;;10.01;100.00
3160;BME280;1591;51.486;7.146;2022-09-28T00:53:03;71478.75;;;9.99;100.00
3160;BME280;1591;51.486;7.146;2022-09-28T00:55:38;71505.78;;;10.04;100.00
3160;BME280;1591;51.486;7.146;2022-09-28T00:58:12;71509.25;;;10.07;100.00
3160;BME280;1591;51.486;7.146;2022-09-28T01:00:44;71496.19;;;10.07;100.00
3160;BME280;1591;51.486;7.146;2022-09-28T01:03:11;71492.06;;;10.11;100.00
3160;BME280;1591;51.486;7.146;2022-09-28T01:05:40;71499.84;;;10.13;100.00
3160;BME280;1591;51.486;7.146;2022-09-28T01:08:11;71505.69;;;10.11;100.00
3160;BME280;1591;51.486;7.146;2022-09-28T01:10:40;71495.13;;;9.99;100.00
3160;BME280;1591;51.486;7.146;2022-09-28T01:13:08;71487.22;;;9.95;100.00
3160;BME280;1591;51.486;7.146;2022-09-28T01:15:48;71465.25;;;9.92;100.00
3160;BME280;1591;51.486;7.146;2022-09-28T01:18:26;71479.03;;;9.95;100.00
3160;BME280;1591;51.486;7.146;2022-09-28T01:21:00;71421.47;;;9.90;100.00
3160;BME280;1591;51.486;7.146;2022-09-28T01:24:18;71404.50;;;9.80;100.00
3160;BME280;1591;51.486;7.146;2022-09-28T01:27:14;71419.75;;;9.88;100.00
3160;BME280;1591;51.486;7.146;2022-09-28T01:29:53;71440.34;;;10.04;100.00
3160;BME280;1591;51.486;7.146;2022-09-28T01:32:34;71519.09;;;10.15;100.00
3160;BME280;1591;51.486;7.146;2022-09-28T01:35:06;71518.66;;;10.17;100.00
3160;BME280;1591;51.486;7.146;2022-09-28T01:37:42;71503.28;;;10.16;100.00
3160;BME280;1591;51.486;7.146;2022-09-28T01:40:14;71485.13;;;10.05;100.00
3160;BME280;1591;51.486;7.146;2022-09-28T01:42:47;71496.63;;;10.05;100.00
3160;BME280;1591;51.486;7.146;2022-09-28T01:45:20;71504.22;;;10.05;100.00
3160;BME280;1591;51.486;7.146;2022-09-28T01:47:55;71492.72;;;10.04;100.00
3160;BME280;1591;51.486;7.146;2022-09-28T01:50:27;71498.84;;;9.98;100.00
3160;BME280;1591;51.486;7.146;2022-09-28T01:53:02;71500.84;;;9.95;100.00
3160;BME280;1591;51.486;7.146;2022-09-28T01:55:40;71416.84;;;9.86;100.00
3160;BME280;1591;51.486;7.146;2022-09-28T01:58:13;71471.47;;;9.79;100.00
3160;BME280;1591;51.486;7.146;2022-09-28T02:00:46;71459.31;;;9.85;100.00
3160;BME280;1591;51.486;7.146;2022-09-28T02:03:19;71486.66;;;9.94;100.00
3160;BME280;1591;51.486;7.146;2022-09-28T02:05:51;71489.22;;;9.92;100.00
3160;BME280;1591;51.486;7.146;2022-09-28T02:08:25;71496.38;;;9.93;100.00
3160;BME280;1591;51.486;7.146;2022-09-28T02:11:02;71478.88;;;9.92;100.00
3160;BME280;1591;51.486;7.146;2022-09-28T02:13:37;71487.94;;;9.98;100.00
3160;BME280;1591;51.486;7.146;2022-09-28T02:16:20;71492.13;;;10.04;100.00
3160;BME280;1591;51.486;7.146;2022-09-28T02:18:50;71434.22;;;10.10;100.00
3160;BME280;1591;51.486;7.146;2022-09-28T02:21:24;71489.56;;;10.06;100.00
3160;BME280;1591;51.486;7.146;2022-09-28T02:24:00;71496.19;;;10.07;100.00
3160;BME280;1591;51.486;7.146;2022-09-28T02:26:34;71505.13;;;10.10;100.00
3160;BME280;1591;51.486;7.146;2022-09-28T02:29:06;71450.63;;;10.20;100.00
3160;BME280;1591;51.486;7.146;2022-09-28T02:31:34;71528.63;;;10.28;100.00
3160;BME280;1591;51.486;7.146;2022-09-28T02:34:02;71534.81;;;10.31;100.00
3160;BME280;1591;51.486;7.146;2022-09-28T02:36:31;71534.50;;;10.26;100.00
3160;BME280;1591;51.486;7.146;2022-09-28T02:38:59;71512.09;;;10.26;100.00
3160;BME280;1591;51.486;7.146;2022-09-28T02:41:46;71517.56;;;10.26;100.00
3160;BME280;1591;51.486;7.146;2022-09-28T02:44:45;71524.75;;;10.27;100.00
3160;BME280;1591;51.486;7.146;2022-09-28T02:47:37;71469.19;;;10.29;100.00
3160;BME280;1591;51.486;7.146;2022-09-28T02:50:18;71524.91;;;10.30;100.00
3160;BME280;1591;51.486;7.146;2022-09-28T02:53:23;71528.69;;;10.38;100.00
3160;BME280;1591;51.486;7.146;2022-09-28T02:56:13;71530.41;;;10.39;100.00
3160;BME280;1591;51.486;7.146;2022-09-28T02:58:55;71524.38;;;10.39;100.00
3160;BME280;1591;51.486;7.146;2022-09-28T03:01:39;71531.41;;;10.38;100.00
3160;BME280;1591;51.486;7.146;2022-09-28T03:04:20;71475.84;;;10.39;100.00
3160;BME280;1591;51.486;7.146;2022-09-28T03:06:59;71524.91;;;10.30;100.00
3160;BME280;1591;51.486;7.146;2022-09-28T03:09:32;71514.00;;;10.30;100.00
3160;BME280;1591;51.486;7.146;2022-09-28T03:12:07;71467.78;;;10.32;100.00
3160;BME280;1591;51.486;7.146;2022-09-28T03:14:38;71525.06;;;10.32;100.00
3160;BME280;1591;51.486;7.146;2022-09-28T03:17:09;71534.97;;;10.34;100.00
3160;BME280;1591;51.486;7.146;2022-09-28T03:19:36;71535.13;;;10.36;100.00
3160;BME280;1591;51.486;7.146;2022-09-28T03:22:09;71523.91;;;10.31;100.00
3160;BME280;1591;51.486;7.146;2022-09-28T03:24:37;71541.84;;;10.30;100.00
3160;BME280;1591;51.486;7.146;2022-09-28T03:27:06;71516.97;;;10.25;100.00
3160;BME280;1591;51.486;7.146;2022-09-28T03:29:36;71517.19;;;10.11;100.00
3160;BME280;1591;51.486;7.146;2022-09-28T03:32:03;71483.97;;;10.04;100.00
3160;BME280;1591;51.486;7.146;2022-09-28T03:34:32;71473.31;;;9.99;100.00
3160;BME280;1591;51.486;7.146;2022-09-28T03:37:00;71430.69;;;9.98;100.00
3160;BME280;1591;51.486;7.146;2022-09-28T03:39:27;71425.81;;;9.98;100.00
3160;BME280;1591;51.486;7.146;2022-09-28T03:41:55;71488.09;;;10.00;100.00
3160;BME280;1591;51.486;7.146;2022-09-28T03:44:22;71504.22;;;10.05;100.00
3160;BME280;1591;51.486;7.146;2022-09-28T03:46:50;71493.22;;;10.12;100.00
3160;BME280;1591;51.486;7.146;2022-09-28T03:49:17;71497.81;;;10.16;100.00
3160;BME280;1591;51.486;7.146;2022-09-28T03:51:52;71455.34;;;10.17;100.00
3160;BME280;1591;51.486;7.146;2022-09-28T03:54:22;71502.72;;;10.15;100.00
3160;BME280;1591;51.486;7.146;2022-09-28T03:56:49;71500.28;;;10.20;100.00
3160;BME280;1591;51.486;7.146;2022-09-28T03:59:17;71515.94;;;10.17;100.00
3160;BME280;1591;51.486;7.146;2022-09-28T04:01:47;71445.75;;;10.20;100.00
3160;BME280;1591;51.486;7.146;2022-09-28T04:04:16;71504.03;;;10.19;100.00
3160;BME280;1591;51.486;7.146;2022-09-28T04:06:46;71506.00;;;10.16;100.00
3160;BME280;1591;51.486;7.146;2022-09-28T04:09:13;71454.19;;;10.16;100.00
3160;BME280;1591;51.486;7.146;2022-09-28T04:11:41;71523.53;;;10.17;100.00
3160;BME280;1591;51.486;7.146;2022-09-28T04:14:08;71445.19;;;10.20;100.00
3160;BME280;1591;51.486;7.146;2022-09-28T04:16:35;71444.00;;;10.19;100.00
3160;BME280;1591;51.486;7.146;2022-09-28T04:19:02;71504.34;;;10.24;100.00
3160;BME280;1591;51.486;7.146;2022-09-28T04:21:31;71515.84;;;10.08;100.00
3160;BME280;1591;51.486;7.146;2022-09-28T04:24:00;71503.56;;;10.11;100.00
3160;BME280;1591;51.486;7.146;2022-09-28T04:26:30;71509.31;;;10.16;100.00
3160;BME280;1591;51.486;7.146;2022-09-28T04:28:57;71510.47;;;10.17;100.00
3160;BME280;1591;51.486;7.146;2022-09-28T04:31:45;71515.50;;;10.19;100.00
3160;BME280;1591;51.486;7.146;2022-09-28T04:34:14;71527.00;;;10.20;100.00
3160;BME280;1591;51.486;7.146;2022-09-28T04:36:43;71448.00;;;10.13;100.00
3160;BME280;1591;51.486;7.146;2022-09-28T04:39:16;71457.50;;;10.16;100.00
3160;BME280;1591;51.486;7.146;2022-09-28T04:41:47;71512.94;;;10.22;100.00
3160;BME280;1591;51.486;7.146;2022-09-28T04:44:14;71509.06;;;10.21;100.00
3160;BME280;1591;51.486;7.146;2022-09-28T04:46:41;71508.63;;;10.23;100.00
3160;BME280;1591;51.486;7.146;2022-09-28T04:49:09;71462.44;;;10.25;100.00
3160;BME280;1591;51.486;7.146;2022-09-28T04:51:38;71519.53;;;10.23;100.00
3160;BME280;1591;51.486;7.146;2022-09-28T04:54:05;71509.91;;;10.17;100.00
3160;BME280;1591;51.486;7.146;2022-09-28T04:56:33;71520.38;;;10.19;100.00
3160;BME280;1591;51.486;7.146;2022-09-28T04:59:02;71513.38;;;10.20;100.00
3160;BME280;1591;51.486;7.146;2022-09-28T05:01:29;71504.03;;;10.19;100.00
3160;BME280;1591;51.486;7.146;2022-09-28T05:03:58;71510.66;;;10.20;100.00
3160;BME280;1591;51.486;7.146;2022-09-28T05:06:27;71509.63;;;10.21;100.00
3160;BME280;1591;51.486;7.146;2022-09-28T05:08:57;71522.13;;;10.20;100.00
3160;BME280;1591;51.486;7.146;2022-09-28T05:11:24;71507.63;;;10.24;100.00
3160;BME280;1591;51.486;7.146;2022-09-28T05:13:55;71521.28;;;10.24;100.00
3160;BME280;1591;51.486;7.146;2022-09-28T05:16:24;71519.72;;;10.25;100.00
3160;BME280;1591;51.486;7.146;2022-09-28T05:18:54;71513.25;;;10.27;100.00
3160;BME280;1591;51.486;7.146;2022-09-28T05:21:21;71525.75;;;10.26;100.00
3160;BME280;1591;51.486;7.146;2022-09-28T05:23:51;71489.34;;;10.11;100.00
3160;BME280;1591;51.486;7.146;2022-09-28T05:26:22;71493.22;;;10.12;100.00
3160;BME280;1591;51.486;7.146;2022-09-28T05:28:49;71508.13;;;10.32;100.00
3160;BME280;1591;51.486;7.146;2022-09-28T05:31:25;71510.78;;;10.22;100.00
3160;BME280;1591;51.486;7.146;2022-09-28T05:33:53;71515.25;;;10.24;100.00
3160;BME280;1591;51.486;7.146;2022-09-28T05:36:22;71509.63;;;10.21;100.00
3160;BME280;1591;51.486;7.146;2022-09-28T05:38:51;71501.72;;;10.17;100.00
3160;BME280;1591;51.486;7.146;2022-09-28T05:41:21;71517.66;;;10.19;100.00
3160;BME280;1591;51.486;7.146;2022-09-28T05:43:48;71503.59;;;10.21;100.00
3160;BME280;1591;51.486;7.146;2022-09-28T05:46:21;71520.28;;;10.26;100.00
3160;BME280;1591;51.486;7.146;2022-09-28T05:48:49;71519.28;;;10.27;100.00
3160;BME280;1591;51.486;7.146;2022-09-28T05:51:17;71463.00;;;10.26;100.00
3160;BME280;1591;51.486;7.146;2022-09-28T05:53:44;71522.59;;;10.28;100.00
3160;BME280;1591;51.486;7.146;2022-09-28T05:56:12;71518.72;;;10.27;100.00
3160;BME280;1591;51.486;7.146;2022-09-28T05:58:39;71529.94;;;10.32;100.00
3160;BME280;1591;51.486;7.146;2022-09-28T06:01:08;71527.25;;;10.42;100.00
3160;BME280;1591;51.486;7.146;2022-09-28T06:03:38;71530.56;;;10.42;100.00
3160;BME280;1591;51.486;7.146;2022-09-28T06:06:06;71538.16;;;10.42;100.00
3160;BME280;1591;51.486;7.146;2022-09-28T06:08:33;71538.66;;;10.49;100.00
3160;BME280;1591;51.486;7.146;2022-09-28T06:11:01;71535.81;;;10.56;100.00
3160;BME280;1591;51.486;7.146;2022-09-28T06:13:28;71509.13;;;10.66;100.00
3160;BME280;1591;51.486;7.146;2022-09-28T06:15:58;71561.31;;;10.71;100.00
3160;BME280;1591;51.486;7.146;2022-09-28T06:18:27;71569.06;;;10.73;100.00
3160;BME280;1591;51.486;7.146;2022-09-28T06:20:56;71524.56;;;10.77;100.00
3160;BME280;1591;51.486;7.146;2022-09-28T06:23:23;71595.13;;;10.79;100.00
3160;BME280;1591;51.486;7.146;2022-09-28T06:25:50;71586.41;;;10.88;100.00
3160;BME280;1591;51.486;7.146;2022-09-28T06:28:18;71521.28;;;10.86;100.00
3160;BME280;1591;51.486;7.146;2022-09-28T06:30:48;71600.75;;;10.82;100.00
3160;BME280;1591;51.486;7.146;2022-09-28T06:33:15;71592.72;;;10.84;100.00
3160;BME280;1591;51.486;7.146;2022-09-28T06:35:46;71583.66;;;10.88;100.00
3160;BME280;1591;51.486;7.146;2022-09-28T06:38:15;71596.06;;;10.94;100.00
3160;BME280;1591;51.486;7.146;2022-09-28T06:40:42;71604.69;;;10.92;100.00
3160;BME280;1591;51.486;7.146;2022-09-28T06:43:11;71598.38;;;10.96;100.00
3160;BME280;1591;51.486;7.146;2022-09-28T06:45:41;71604.16;;;11.01;100.00
3160;BME280;1591;51.486;7.146;2022-09-28T06:48:10;71608.44;;;11.00;100.00
3160;BME280;1591;51.486;7.146;2022-09-28T06:50:39;71614.91;;;10.99;100.00
3160;BME280;1591;51.486;7.146;2022-09-28T06:53:11;71613.91;;;11.00;100.00
3160;BME280;1591;51.486;7.146;2022-09-28T06:55:42;71590.75;;;10.97;100.00
3160;BME280;1591;51.486;7.146;2022-09-28T06:58:12;71601.09;;;10.96;100.00
3160;BME280;1591;51.486;7.146;2022-09-28T07:00:40;71542.19;;;10.97;100.00
3160;BME280;1591;51.486;7.146;2022-09-28T07:03:10;71603.09;;;10.93;100.00
3160;BME280;1591;51.486;7.146;2022-09-28T07:05:43;71600.50;;;10.96;100.00
3160;BME280;1591;51.486;7.146;2022-09-28T07:08:13;71599.78;;;10.93;100.00
3160;BME280;1591;51.486;7.146;2022-09-28T07:10:46;71583.41;;;10.93;100.00
3160;BME280;1591;51.486;7.146;2022-09-28T07:13:14;71596.47;;;10.92;100.00
3160;BME280;1591;51.486;7.146;2022-09-28T07:15:42;71613.63;;;10.95;100.00
3160;BME280;1591;51.486;7.146;2022-09-28T07:18:10;71610.03;;;10.99;100.00
3160;BME280;1591;51.486;7.146;2022-09-28T07:20:38;71615.63;;;11.02;100.00
3160;BME280;1591;51.486;7.146;2022-09-28T07:23:08;71608.78;;;11.05;100.00
3160;BME280;1591;51.486;7.146;2022-09-28T07:25:37;71610.50;;;11.07;100.00
3160;BME280;1591;51.486;7.146;2022-09-28T07:28:13;71588.13;;;10.90;100.00
3160;BME280;1591;51.486;7.146;2022-09-28T07:30:40;71590.19;;;10.96;100.00
3160;BME280;1591;51.486;7.146;2022-09-28T07:33:11;71599.22;;;10.92;100.00
3160;BME280;1591;51.486;7.146;2022-09-28T07:35:41;71610.59;;;11.00;100.00
3160;BME280;1591;51.486;7.146;2022-09-28T07:38:18;71616.53;;;11.07;100.00
3160;BME280;1591;51.486;7.146;2022-09-28T07:40:45;71611.25;;;11.10;100.00
3160;BME280;1591;51.486;7.146;2022-09-28T07:43:32;71616.41;;;11.14;100.00
3160;BME280;1591;51.486;7.146;2022-09-28T07:45:59;71622.34;;;11.22;100.00
3160;BME280;1591;51.486;7.146;2022-09-28T07:48:26;71643.78;;;11.24;100.00
3160;BME280;1591;51.486;7.146;2022-09-28T07:50:55;71648.56;;;11.31;100.00
3160;BME280;1591;51.486;7.146;2022-09-28T07:53:26;71576.09;;;11.34;100.00
3160;BME280;1591;51.486;7.146;2022-09-28T07:55:56;71581.13;;;11.36;100.00
3160;BME280;1591;51.486;7.146;2022-09-28T07:58:31;71657.28;;;11.48;100.00
3160;BME280;1591;51.486;7.146;2022-09-28T08:01:02;71673.88;;;11.60;100.00
3160;BME280;1591;51.486;7.146;2022-09-28T08:03:29;71618.03;;;11.59;100.00
3160;BME280;1591;51.486;7.146;2022-09-28T08:05:58;71670.41;;;11.57;100.00
3160;BME280;1591;51.486;7.146;2022-09-28T08:08:26;71677.19;;;11.60;100.00
3160;BME280;1591;51.486;7.146;2022-09-28T08:10:55;71682.38;;;11.65;100.00
3160;BME280;1591;51.486;7.146;2022-09-28T08:13:22;71670.72;;;11.62;100.00
3160;BME280;1591;51.486;7.146;2022-09-28T08:16:00;71669.00;;;11.60;100.00
3160;BME280;1591;51.486;7.146;2022-09-28T08:18:30;71662.28;;;11.66;100.00
3160;BME280;1591;51.486;7.146;2022-09-28T08:20:58;71669.88;;;11.66;100.00
3160;BME280;1591;51.486;7.146;2022-09-28T08:23:42;71689.50;;;11.73;100.00
3160;BME280;1591;51.486;7.146;2022-09-28T08:26:10;71691.81;;;11.75;100.00
3160;BME280;1591;51.486;7.146;2022-09-28T08:28:39;71687.50;;;11.76;100.00
3160;BME280;1591;51.486;7.146;2022-09-28T08:31:08;71681.59;;;11.78;100.00
3160;BME280;1591;51.486;7.146;2022-09-28T08:33:35;71674.03;;;11.62;100.00
3160;BME280;1591;51.486;7.146;2022-09-28T08:36:04;71665.53;;;11.57;100.00
3160;BME280;1591;51.486;7.146;2022-09-28T08:38:31;71658.53;;;11.42;100.00
3160;BME280;1591;51.486;7.146;2022-09-28T08:41:08;71654.66;;;11.41;100.00
3160;BME280;1591;51.486;7.146;2022-09-28T08:46:42;71665.97;;;11.65;100.00
3160;BME280;1591;51.486;7.146;2022-09-28T08:49:15;71737.59;;;12.18;100.00
3160;BME280;1591;51.486;7.146;2022-09-28T08:51:57;71774.63;;;12.50;100.00
3160;BME280;1591;51.486;7.146;2022-09-28T08:54:48;71791.66;;;12.69;100.00
3160;BME280;1591;51.486;7.146;2022-09-28T08:57:23;71812.00;;;12.70;100.00
3160;BME280;1591;51.486;7.146;2022-09-28T08:59:55;71815.41;;;12.90;100.00
3160;BME280;1591;51.486;7.146;2022-09-28T09:02:30;71812.38;;;12.95;100.00
3160;BME280;1591;51.486;7.146;2022-09-28T09:04:59;71835.66;;;13.08;100.00
3160;BME280;1591;51.486;7.146;2022-09-28T09:07:58;71834.22;;;13.11;100.00
3160;BME280;1591;51.486;7.146;2022-09-28T09:10:46;71838.19;;;12.96;100.00
3160;BME280;1591;51.486;7.146;2022-09-28T09:14:00;71802.66;;;12.79;100.00
3160;BME280;1591;51.486;7.146;2022-09-28T09:16:40;71787.03;;;12.65;100.00
3160;BME280;1591;51.486;7.146;2022-09-28T09:19:25;71786.31;;;12.62;100.00
3160;BME280;1591;51.486;7.146;2022-09-28T09:22:05;71727.38;;;12.66;100.00
3160;BME280;1591;51.486;7.146;2022-09-28T09:24:47;71792.84;;;12.70;100.00
3160;BME280;1591;51.486;7.146;2022-09-28T09:27:34;71816.22;;;12.86;100.00
3160;BME280;1591;51.486;7.146;2022-09-28T09:30:11;71815.25;;;12.88;100.00
3160;BME280;1591;51.486;7.146;2022-09-28T09:33:27;71804.13;;;12.85;100.00
3160;BME280;1591;51.486;7.146;2022-09-28T09:36:31;71841.28;;;13.10;100.00
3160;BME280;1591;51.486;7.146;2022-09-28T09:39:18;71861.97;;;13.35;100.00
3160;BME280;1591;51.486;7.146;2022-09-28T09:42:03;71887.13;;;13.52;100.00
3160;BME280;1591;51.486;7.146;2022-09-28T09:44:53;71903.00;;;13.52;100.00
3160;BME280;1591;51.486;7.146;2022-09-28T09:47:28;71882.66;;;13.51;100.00
3160;BME280;1591;51.486;7.146;2022-09-28T09:50:02;71877.88;;;13.44;100.00
3160;BME280;1591;51.486;7.146;2022-09-28T09:52:45;71901.59;;;13.65;100.00
3160;BME280;1591;51.486;7.146;2022-09-28T09:55:26;71919.41;;;13.88;100.00
3160;BME280;1591;51.486;7.146;2022-09-28T09:58:03;71945.59;;;14.13;100.00
3160;BME280;1591;51.486;7.146;2022-09-28T10:00:33;71939.94;;;14.01;100.00
3160;BME280;1591;51.486;7.146;2022-09-28T10:03:01;71937.34;;;14.03;100.00
3160;BME280;1591;51.486;7.146;2022-09-28T10:05:30;71895.00;;;14.02;100.00
3160;BME280;1591;51.486;7.146;2022-09-28T10:08:10;71942.09;;;14.00;100.00
3160;BME280;1591;51.486;7.146;2022-09-28T10:10:47;71928.78;;;13.89;100.00
3160;BME280;1591;51.486;7.146;2022-09-28T10:13:17;71904.19;;;13.72;100.00
3160;BME280;1591;51.486;7.146;2022-09-28T10:15:44;71918.94;;;13.71;100.00
3160;BME280;1591;51.486;7.146;2022-09-28T10:18:20;71900.16;;;13.69;100.00
3160;BME280;1591;51.486;7.146;2022-09-28T10:20:47;71920.41;;;13.86;100.00
3160;BME280;1591;51.486;7.146;2022-09-28T10:23:20;71932.41;;;13.94;100.00
3160;BME280;1591;51.486;7.146;2022-09-28T10:25:52;71938.78;;;13.90;100.00
3160;BME280;1591;51.486;7.146;2022-09-28T10:28:28;71916.50;;;13.76;100.00
3160;BME280;1591;51.486;7.146;2022-09-28T10:30:58;71908.69;;;13.74;100.00
3160;BME280;1591;51.486;7.146;2022-09-28T10:33:30;71899.00;;;13.68;100.00
3160;BME280;1591;51.486;7.146;2022-09-28T10:36:04;71884.13;;;13.57;100.00
3160;BME280;1591;51.486;7.146;2022-09-28T10:38:34;71890.47;;;13.53;100.00
3160;BME280;1591;51.486;7.146;2022-09-28T10:41:10;71896.94;;;13.51;100.00
3160;BME280;1591;51.486;7.146;2022-09-28T10:43:50;71864.16;;;13.44;100.00
3160;BME280;1591;51.486;7.146;2022-09-28T10:46:33;71870.53;;;13.50;100.00
3160;BME280;1591;51.486;7.146;2022-09-28T10:49:03;71914.03;;;13.71;100.00
3160;BME280;1591;51.486;7.146;2022-09-28T10:51:43;71925.91;;;13.96;100.00
3160;BME280;1591;51.486;7.146;2022-09-28T10:54:17;71956.00;;;14.12;100.00
3160;BME280;1591;51.486;7.146;2022-09-28T10:56:45;71957.00;;;14.20;100.00
3160;BME280;1591;51.486;7.146;2022-09-28T10:59:35;71962.22;;;14.15;100.00
3160;BME280;1591;51.486;7.146;2022-09-28T11:02:18;71960.03;;;14.16;100.00
3160;BME280;1591;51.486;7.146;2022-09-28T11:04:52;71968.56;;;14.21;100.00
3160;BME280;1591;51.486;7.146;2022-09-28T11:07:23;71973.50;;;14.20;100.00
3160;BME280;1591;51.486;7.146;2022-09-28T11:09:54;71962.06;;;14.22;100.00
3160;BME280;1591;51.486;7.146;2022-09-28T11:12:25;71960.66;;;14.26;100.00
3160;BME280;1591;51.486;7.146;2022-09-28T11:14:59;71979.31;;;14.35;100.00
3160;BME280;1591;51.486;7.146;2022-09-28T11:17:29;72007.56;;;14.57;100.00
3160;BME280;1591;51.486;7.146;2022-09-28T11:20:01;72041.28;;;14.89;100.00
3160;BME280;1591;51.486;7.146;2022-09-28T11:22:53;72060.13;;;15.10;100.00
3160;BME280;1591;51.486;7.146;2022-09-28T11:25:23;72065.63;;;15.20;100.00
3160;BME280;1591;51.486;7.146;2022-09-28T11:27:55;72091.81;;;15.26;100.00
3160;BME280;1591;51.486;7.146;2022-09-28T11:30:26;72105.91;;;15.50;100.00
3160;BME280;1591;51.486;7.146;2022-09-28T11:32:55;72116.03;;;15.54;100.00
3160;BME280;1591;51.486;7.146;2022-09-28T11:35:29;72112.41;;;15.48;100.00
3160;BME280;1591;51.486;7.146;2022-09-28T11:38:07;72115.16;;;15.58;100.00
3160;BME280;1591;51.486;7.146;2022-09-28T11:40:46;72112.13;;;15.62;100.00
3160;BME280;1591;51.486;7.146;2022-09-28T11:43:38;72122.13;;;15.64;100.00
3160;BME280;1591;51.486;7.146;2022-09-28T11:46:17;72114.59;;;15.57;100.00
3160;BME280;1591;51.486;7.146;2022-09-28T11:48:53;72131.84;;;15.60;100.00
3160;BME280;1591;51.486;7.146;2022-09-28T11:51:25;72113.72;;;15.61;100.00
3160;BME280;1591;51.486;7.146;2022-09-28T11:54:01;72133.72;;;15.64;100.00
3160;BME280;1591;51.486;7.146;2022-09-28T11:56:42;72098.53;;;15.46;100.00
3160;BME280;1591;51.486;7.146;2022-09-28T11:59:20;72074.16;;;15.25;100.00
3160;BME280;1591;51.486;7.146;2022-09-28T12:01:55;72063.56;;;15.13;100.00
3160;BME280;1591;51.486;7.146;2022-09-28T12:04:30;72050.28;;;15.01;100.00
3160;BME280;1591;51.486;7.146;2022-09-28T12:07:07;72025.50;;;14.73;100.00
3160;BME280;1591;51.486;7.146;2022-09-28T12:09:42;72012.91;;;14.64;100.00
3160;BME280;1591;51.486;7.146;2022-09-28T12:12:20;71998.28;;;14.49;100.00
3160;BME280;1591;51.486;7.146;2022-09-28T12:14:54;71997.97;;;14.44;100.00
3160;BME280;1591;51.486;7.146;2022-09-28T12:17:27;71967.28;;;14.17;100.00
3160;BME280;1591;51.486;7.146;2022-09-28T12:20:02;71901.75;;;13.77;100.00
3160;BME280;1591;51.486;7.146;2022-09-28T12:22:32;71935.16;;;13.94;100.00
3160;BME280;1591;51.486;7.146;2022-09-28T12:25:03;71869.50;;;13.42;100.00
3160;BME280;1591;51.486;7.146;2022-09-28T12:27:40;71871.22;;;13.34;100.00
3160;BME280;1591;51.486;7.146;2022-09-28T12:30:14;71865.03;;;13.40;100.00
3160;BME280;1591;51.486;7.146;2022-09-28T12:32:49;71878.91;;;13.52;100.00
3160;BME280;1591;51.486;7.146;2022-09-28T12:35:28;71886.72;;;13.54;100.00
3160;BME280;1591;51.486;7.146;2022-09-28T12:38:26;71902.03;;;13.73;100.00
3160;BME280;1591;51.486;7.146;2022-09-28T12:41:07;71937.91;;;13.94;100.00
3160;BME280;1591;51.486;7.146;2022-09-28T12:44:01;71932.41;;;13.94;100.00
3160;BME280;1591;51.486;7.146;2022-09-28T12:46:52;71947.56;;;13.91;100.00
3160;BME280;1591;51.486;7.146;2022-09-28T12:49:45;71953.25;;;14.12;100.00
3160;BME280;1591;51.486;7.146;2022-09-28T12:52:31;71969.28;;;14.14;100.00
3160;BME280;1591;51.486;7.146;2022-09-28T12:55:22;71983.06;;;14.33;100.00
3160;BME280;1591;51.486;7.146;2022-09-28T12:58:01;72013.03;;;14.57;100.00
3160;BME280;1591;51.486;7.146;2022-09-28T13:00:41;72034.19;;;14.80;100.00
3160;BME280;1591;51.486;7.146;2022-09-28T13:04:17;72050.84;;;14.92;100.00
3160;BME280;1591;51.486;7.146;2022-09-28T13:06:58;72056.19;;;15.09;100.00
3160;BME280;1591;51.486;7.146;2022-09-28T13:09:39;72090.66;;;15.34;100.00
3160;BME280;1591;51.486;7.146;2022-09-28T13:12:31;72120.53;;;15.55;100.00
3160;BME280;1591;51.486;7.146;2022-09-28T13:15:40;72122.84;;;15.67;100.00
3160;BME280;1591;51.486;7.146;2022-09-28T13:18:18;72134.00;;;15.69;100.00
3160;BME280;1591;51.486;7.146;2022-09-28T13:21:01;72145.13;;;15.81;100.00
3160;BME280;1591;51.486;7.146;2022-09-28T13:23:36;72155.28;;;15.95;100.00
3160;BME280;1591;51.486;7.146;2022-09-28T13:26:18;72194.72;;;16.29;100.00
3160;BME280;1591;51.486;7.146;2022-09-28T13:28:51;72211.53;;;16.44;100.00
3160;BME280;1591;51.486;7.146;2022-09-28T13:31:25;72199.22;;;16.31;100.00
3160;BME280;1591;51.486;7.146;2022-09-28T13:33:57;72206.00;;;16.34;100.00
3160;BME280;1591;51.486;7.146;2022-09-28T13:37:20;72162.97;;;16.04;100.00
3160;BME280;1591;51.486;7.146;2022-09-28T13:39:54;72177.31;;;16.14;100.00
3160;BME280;1591;51.486;7.146;2022-09-28T13:42:39;72152.97;;;15.93;100.00
3160;BME280;1591;51.486;7.146;2022-09-28T13:48:43;72246.47;;;16.77;100.00
3160;BME280;1591;51.486;7.146;2022-09-28T13:51:38;72269.84;;;16.90;100.00
3160;BME280;1591;51.486;7.146;2022-09-28T13:54:35;72281.00;;;17.02;100.00
3160;BME280;1591;51.486;7.146;2022-09-28T13:57:26;72328.00;;;17.52;100.00
3160;BME280;1591;51.486;7.146;2022-09-28T14:00:17;72357.03;;;17.68;100.00